Time;durP1;ratioP1;P1;durP2;ratioP2;P2;SDS_P1;SDS_P2;PMS_P1;PMS_P2;Temp;Humidity;BMP_temperature;BMP_pressure;BME280_temperature;BME280_humidity;BME280_pressure;Samples;Min_cycle;Max_cycle;Signal;HPM_P1;HPM_P2
2022/06/09 00:02:21;;;;;;;19.83;15.40;;;17.00;1.00;;;;;;5044778;28;20195;-73
2022/06/09 00:04:47;;;;;;;20.00;14.50;;;17.00;1.00;;;;;;5033480;28;20176;-73
2022/06/09 00:07:21;;;;;;;18.57;14.00;;;17.00;1.00;;;;;;5031587;28;20434;-73
2022/06/09 00:10:08;;;;;;;19.47;13.70;;;17.00;1.00;;;;;;5035727;28;20217;-65
2022/06/09 00:12:35;;;;;;;20.07;15.20;;;17.00;1.00;;;;;;5033019;28;20429;-65
2022/06/09 00:15:03;;;;;;;19.77;14.17;;;17.00;1.00;;;;;;5036830;28;20926;-73
2022/06/09 00:17:30;;;;;;;16.30;14.13;;;17.00;1.00;;;;;;5032607;28;20437;-65
2022/06/09 00:19:56;;;;;;;17.10;13.47;;;16.90;4.90;;;;;;5033983;28;20449;-65
2022/06/09 00:22:22;;;;;;;16.77;13.90;;;16.90;11.40;;;;;;5033442;28;20466;-65
2022/06/09 00:24:48;;;;;;;19.40;15.23;;;16.90;16.00;;;;;;5049633;28;20714;-64
2022/06/09 00:27:13;;;;;;;18.03;15.20;;;16.80;21.90;;;;;;5050636;28;20421;-72
2022/06/09 00:29:39;;;;;;;21.60;15.43;;;16.70;28.50;;;;;;5052794;28;20201;-72
2022/06/09 00:32:05;;;;;;;20.03;15.33;;;16.50;27.90;;;;;;5040629;28;20178;-65
2022/06/09 00:34:31;;;;;;;17.67;13.53;;;16.40;38.70;;;;;;5032996;28;20175;-72
2022/06/09 00:36:57;;;;;;;16.00;13.70;;;16.40;50.90;;;;;;5038696;28;20421;-66
2022/06/09 00:39:23;;;;;;;17.27;13.57;;;16.40;66.70;;;;;;5037770;28;20202;-65
2022/06/09 00:41:48;;;;;;;20.20;15.40;;;16.40;85.50;;;;;;5033181;28;20500;-73
2022/06/09 00:44:19;;;;;;;19.13;14.60;;;16.40;91.50;;;;;;5044807;28;20262;-64
2022/06/09 00:46:51;;;;;;;18.47;14.57;;;16.50;96.60;;;;;;5049591;28;20175;-73
2022/06/09 00:49:35;;;;;;;17.60;13.83;;;16.50;99.90;;;;;;5036987;28;20418;-65
2022/06/09 00:52:04;;;;;;;16.97;14.23;;;16.60;99.90;;;;;;5037709;28;20410;-73
2022/06/09 00:54:43;;;;;;;15.87;13.47;;;16.60;99.90;;;;;;5036936;28;20414;-73
2022/06/09 00:57:17;;;;;;;16.67;13.90;;;16.60;99.90;;;;;;5037592;28;20426;-73
2022/06/09 00:59:46;;;;;;;16.70;13.23;;;16.60;99.90;;;;;;5037200;28;20942;-71
2022/06/09 01:02:15;;;;;;;18.20;14.70;;;16.60;99.90;;;;;;5036473;28;20496;-73
2022/06/09 01:04:43;;;;;;;18.60;14.00;;;16.50;99.90;;;;;;5044827;28;20428;-73
2022/06/09 01:07:12;;;;;;;17.13;14.10;;;16.50;99.90;;;;;;5054110;28;20422;-73
2022/06/09 01:09:39;;;;;;;16.43;13.63;;;16.60;99.90;;;;;;5040603;28;20787;-64
2022/06/09 01:12:26;;;;;;;17.63;13.60;;;16.60;99.90;;;;;;5036110;28;20402;-66
2022/06/09 01:14:57;;;;;;;18.07;13.83;;;16.70;99.90;;;;;;5043989;28;20457;-64
2022/06/09 01:17:46;;;;;;;16.33;14.23;;;16.70;99.90;;;;;;5035413;28;20402;-65
2022/06/09 01:20:37;;;;;;;20.83;14.50;;;16.60;99.90;;;;;;5036200;28;20406;-73
2022/06/09 01:23:27;;;;;;;15.60;13.23;;;16.60;99.90;;;;;;5037180;28;20457;-73
2022/06/09 01:26:30;;;;;;;16.90;13.60;;;16.50;99.90;;;;;;5035834;28;20424;-66
2022/06/09 01:29:16;;;;;;;16.93;13.60;;;16.60;99.90;;;;;;5035533;28;20789;-68
2022/06/09 01:31:48;;;;;;;18.63;14.10;;;16.60;99.90;;;;;;5041158;28;20740;-64
2022/06/09 01:34:29;;;;;;;16.47;14.23;;;16.60;99.90;;;;;;5036455;28;20398;-72
2022/06/09 01:37:25;;;;;;;19.30;13.87;;;16.60;99.90;;;;;;5034970;28;20954;-72
2022/06/09 01:39:55;;;;;;;17.90;15.23;;;16.60;99.90;;;;;;5035344;28;20461;-74
2022/06/09 01:42:42;;;;;;;22.47;15.70;;;16.60;99.90;;;;;;5034859;28;20485;-73
2022/06/09 01:45:26;;;;;;;23.97;16.07;;;16.60;99.90;;;;;;5054806;28;20421;-74
2022/06/09 01:48:06;;;;;;;21.60;16.10;;;16.60;99.90;;;;;;5034731;28;20533;-65
2022/06/09 01:50:54;;;;;;;18.93;15.60;;;16.60;99.90;;;;;;5048900;28;20760;-73
2022/06/09 01:53:28;;;;;;;16.77;14.70;;;16.60;99.90;;;;;;5042473;28;20918;-73
2022/06/09 01:56:06;;;;;;;19.47;16.60;;;16.60;99.90;;;;;;5035425;28;20755;-64
2022/06/09 01:58:39;;;;;;;20.50;14.80;;;16.60;99.90;;;;;;5034753;28;20457;-64
2022/06/09 02:01:06;;;;;;;21.57;15.63;;;16.50;99.90;;;;;;5036580;28;20454;-65
2022/06/09 02:03:38;;;;;;;19.30;14.73;;;16.50;99.90;;;;;;5036217;28;20453;-73
2022/06/09 02:06:06;;;;;;;18.90;14.30;;;16.50;99.90;;;;;;5036921;28;20942;-65
2022/06/09 02:08:34;;;;;;;18.80;15.00;;;16.50;99.90;;;;;;5037394;28;20525;-73
2022/06/09 02:11:04;;;;;;;19.10;14.40;;;16.50;99.90;;;;;;5036248;28;20409;-65
2022/06/09 02:13:35;;;;;;;17.40;14.57;;;16.50;99.90;;;;;;5035284;28;20414;-74
2022/06/09 02:16:04;;;;;;;19.17;15.30;;;16.50;99.90;;;;;;5035658;28;20794;-73
2022/06/09 02:18:35;;;;;;;18.83;14.80;;;16.50;99.90;;;;;;5039280;28;20441;-66
2022/06/09 02:21:09;;;;;;;16.33;14.63;;;16.50;99.90;;;;;;5054054;28;20779;-73
2022/06/09 02:23:36;;;;;;;19.43;15.07;;;16.50;99.90;;;;;;5054448;28;20766;-64
2022/06/09 02:26:03;;;;;;;18.00;14.13;;;16.50;99.90;;;;;;5055371;28;20458;-73
2022/06/09 02:28:29;;;;;;;17.03;15.23;;;16.40;99.90;;;;;;5047670;28;20787;-73
2022/06/09 02:30:54;;;;;;;15.77;14.13;;;16.40;99.90;;;;;;5040365;28;20413;-73
2022/06/09 02:33:21;;;;;;;18.03;14.20;;;16.40;99.90;;;;;;5037695;28;20617;-72
2022/06/09 02:35:48;;;;;;;17.17;15.20;;;16.40;99.90;;;;;;5036393;28;20194;-65
2022/06/09 02:38:14;;;;;;;20.60;15.87;;;16.40;99.90;;;;;;5039602;28;20426;-74
2022/06/09 02:40:40;;;;;;;18.90;15.97;;;16.40;99.90;;;;;;5035641;28;20450;-72
2022/06/09 02:43:06;;;;;;;18.20;14.60;;;16.40;99.90;;;;;;5034805;28;20507;-74
2022/06/09 02:45:33;;;;;;;20.37;14.30;;;16.40;99.90;;;;;;5042287;28;20168;-74
2022/06/09 02:47:59;;;;;;;17.60;13.87;;;16.40;99.90;;;;;;5051593;28;20440;-73
2022/06/09 02:50:25;;;;;;;16.90;14.30;;;16.40;99.90;;;;;;5033825;28;20402;-71
2022/06/09 02:52:51;;;;;;;16.87;15.07;;;16.40;99.90;;;;;;5035299;28;20402;-66
2022/06/09 02:55:17;;;;;;;16.03;12.90;;;16.40;99.90;;;;;;5046565;28;20185;-65
2022/06/09 02:57:43;;;;;;;15.87;12.80;;;16.40;99.90;;;;;;5033641;28;20981;-66
2022/06/09 03:00:12;;;;;;;16.80;13.17;;;16.40;99.90;;;;;;5041689;28;20422;-65
2022/06/09 03:02:38;;;;;;;16.07;13.10;;;16.40;99.90;;;;;;5035520;28;20266;-65
2022/06/09 03:05:04;;;;;;;14.40;12.87;;;16.40;99.90;;;;;;5033945;28;21088;-73
2022/06/09 03:07:30;;;;;;;14.23;12.77;;;16.40;99.90;;;;;;5040092;28;20167;-73
2022/06/09 03:09:55;;;;;;;14.67;12.50;;;16.40;99.90;;;;;;5045445;28;20449;-65
2022/06/09 03:12:21;;;;;;;16.70;13.30;;;16.40;99.90;;;;;;5033194;28;20193;-73
2022/06/09 03:14:47;;;;;;;14.40;12.07;;;16.30;99.90;;;;;;5034638;28;20233;-65
2022/06/09 03:17:13;;;;;;;14.50;12.40;;;16.30;99.90;;;;;;5033450;28;20168;-65
2022/06/09 03:19:39;;;;;;;14.27;11.73;;;16.30;99.90;;;;;;5049744;28;20251;-72
2022/06/09 03:22:04;;;;;;;14.03;12.53;;;16.30;99.90;;;;;;5052735;28;20826;-74
2022/06/09 03:24:31;;;;;;;13.83;12.00;;;16.40;99.90;;;;;;5040769;28;20203;-65
2022/06/09 03:26:57;;;;;;;13.23;11.57;;;16.40;99.90;;;;;;5036021;28;20180;-74
2022/06/09 03:29:23;;;;;;;17.50;12.53;;;16.40;99.90;;;;;;5034591;28;20791;-65
2022/06/09 03:31:49;;;;;;;13.73;11.90;;;16.40;99.90;;;;;;5040067;28;20849;-65
2022/06/09 03:34:15;;;;;;;13.67;10.70;;;16.40;99.90;;;;;;5034178;28;20406;-65
2022/06/09 03:36:43;;;;;;;14.93;12.87;;;16.40;99.90;;;;;;5052169;28;20422;-65
2022/06/09 03:39:10;;;;;;;14.10;12.63;;;16.30;99.90;;;;;;5042470;28;21024;-74
2022/06/09 03:41:36;;;;;;;15.27;12.93;;;16.30;99.90;;;;;;5033899;28;20446;-73
2022/06/09 03:44:02;;;;;;;14.87;13.17;;;16.30;99.90;;;;;;5033459;28;20772;-65
2022/06/09 03:46:27;;;;;;;13.23;11.87;;;16.40;99.90;;;;;;5033661;28;20406;-69
2022/06/09 03:48:53;;;;;;;14.83;12.40;;;16.40;99.90;;;;;;5034126;28;20442;-65
2022/06/09 03:51:19;;;;;;;14.67;12.20;;;16.40;99.90;;;;;;5033338;28;20672;-67
2022/06/09 03:53:45;;;;;;;15.80;12.47;;;16.40;99.90;;;;;;5035559;28;20513;-73
2022/06/09 03:56:14;;;;;;;18.90;13.73;;;16.40;99.90;;;;;;5034131;28;20262;-66
2022/06/09 03:58:39;;;;;;;14.87;11.80;;;16.50;99.90;;;;;;5040408;28;20191;-65
2022/06/09 04:01:05;;;;;;;18.10;14.07;;;16.50;99.90;;;;;;5051715;28;20463;-72
2022/06/09 04:03:31;;;;;;;21.03;14.57;;;16.40;99.90;;;;;;5045243;28;20266;-73
2022/06/09 04:05:57;;;;;;;17.80;14.30;;;16.40;99.90;;;;;;5033943;28;20601;-66
2022/06/09 04:08:23;;;;;;;18.63;14.13;;;16.40;99.90;;;;;;5046873;28;20244;-73
2022/06/09 04:10:48;;;;;;;15.67;13.67;;;16.40;99.90;;;;;;5033620;28;20489;-73
2022/06/09 04:13:15;;;;;;;16.90;14.03;;;16.40;99.90;;;;;;5045177;28;20175;-73
2022/06/09 04:15:43;;;;;;;14.80;13.20;;;16.30;99.90;;;;;;5034727;28;20172;-65
2022/06/09 04:18:10;;;;;;;15.80;13.27;;;16.30;99.90;;;;;;5036114;28;20777;-65
2022/06/09 04:20:36;;;;;;;15.67;13.77;;;16.40;99.90;;;;;;5038151;28;20435;-72
2022/06/09 04:23:02;;;;;;;15.47;13.77;;;16.40;99.90;;;;;;5053351;28;20791;-66
2022/06/09 04:25:28;;;;;;;18.37;15.30;;;16.40;99.90;;;;;;5051583;28;20895;-73
2022/06/09 04:27:54;;;;;;;16.73;14.00;;;16.40;99.90;;;;;;5049163;28;20444;-65
2022/06/09 04:30:21;;;;;;;14.73;12.10;;;16.30;99.90;;;;;;5033122;28;20395;-65
2022/06/09 04:32:47;;;;;;;15.47;13.20;;;16.20;99.90;;;;;;5037350;28;20188;-65
2022/06/09 04:35:13;;;;;;;15.40;13.50;;;16.20;99.90;;;;;;5033265;28;20413;-65
2022/06/09 04:40:24;;;;;;;18.23;13.37;;;16.30;99.90;;;;;;5033515;28;20421;-65
2022/06/09 04:42:50;;;;;;;14.90;12.17;;;16.30;99.90;;;;;;5032628;28;20807;-73
2022/06/09 04:45:17;;;;;;;17.27;14.37;;;16.30;99.90;;;;;;5042240;28;20402;-65
2022/06/09 04:47:42;;;;;;;17.20;13.57;;;16.30;99.90;;;;;;5031536;28;20426;-73
2022/06/09 04:50:10;;;;;;;16.57;13.53;;;16.30;99.90;;;;;;5036599;28;20891;-74
2022/06/09 04:52:36;;;;;;;16.90;12.70;;;16.30;99.90;;;;;;5031950;28;20275;-73
2022/06/09 04:55:03;;;;;;;16.03;12.30;;;16.20;99.90;;;;;;5032722;28;20438;-74
2022/06/09 04:57:28;;;;;;;15.30;13.20;;;16.20;99.90;;;;;;5046748;28;20909;-73
2022/06/09 04:59:55;;;;;;;14.47;12.37;;;16.30;99.90;;;;;;5051182;28;20448;-67
2022/06/09 05:02:21;;;;;;;15.10;13.47;;;16.40;99.90;;;;;;5039244;28;20241;-73
2022/06/09 05:04:46;;;;;;;17.70;11.97;;;16.40;99.90;;;;;;5035140;28;20454;-65
2022/06/09 05:07:12;;;;;;;15.63;12.87;;;16.50;99.90;;;;;;5033107;28;20539;-74
2022/06/09 05:09:38;;;;;;;14.40;12.70;;;16.50;99.90;;;;;;5032846;28;20274;-75
2022/06/09 05:12:04;;;;;;;16.77;11.40;;;16.50;99.90;;;;;;5034129;28;20266;-65
2022/06/09 05:14:30;;;;;;;17.37;11.43;;;16.60;99.90;;;;;;5032057;28;20233;-65
2022/06/09 05:16:56;;;;;;;11.40;9.90;;;16.60;99.90;;;;;;5031986;28;20434;-74
2022/06/09 05:19:21;;;;;;;10.67;9.70;;;16.60;99.90;;;;;;5045913;28;20977;-72
2022/06/09 05:21:47;;;;;;;10.20;8.97;;;16.60;99.90;;;;;;5050942;28;20281;-64
2022/06/09 05:24:13;;;;;;;10.93;9.80;;;16.70;99.90;;;;;;5052803;28;20167;-63
2022/06/09 05:26:39;;;;;;;10.77;9.67;;;16.80;99.90;;;;;;5048485;28;20179;-64
2022/06/09 05:29:06;;;;;;;14.60;8.70;;;16.80;99.90;;;;;;5032956;28;20491;-71
2022/06/09 05:31:31;;;;;;;11.37;8.47;;;16.80;99.90;;;;;;5049028;28;20422;-72
2022/06/09 05:33:57;;;;;;;8.80;7.20;;;16.80;99.90;;;;;;5047340;28;20762;-73
2022/06/09 05:36:23;;;;;;;10.30;8.10;;;16.80;99.90;;;;;;5036697;28;20176;-74
2022/06/09 05:47:02;;;;;;;7.13;5.90;;;16.90;99.90;;;;;;5035203;28;20787;-68
2022/06/09 05:49:30;;;;;;;6.40;5.60;;;16.90;99.90;;;;;;5035566;28;20466;-65
2022/06/09 05:51:56;;;;;;;6.63;6.00;;;16.90;99.90;;;;;;5047173;28;20499;-70
2022/06/09 05:54:22;;;;;;;6.63;5.57;;;16.90;99.90;;;;;;5048634;28;20516;-64
2022/06/09 05:56:48;;;;;;;10.33;5.20;;;16.90;99.90;;;;;;5038255;28;20421;-71
2022/06/09 05:59:14;;;;;;;6.30;5.77;;;17.00;99.90;;;;;;5035560;28;20483;-71
2022/06/09 06:01:40;;;;;;;6.40;5.70;;;17.00;99.90;;;;;;5042765;28;20218;-71
2022/06/09 06:04:08;;;;;;;6.63;5.33;;;17.10;99.90;;;;;;5052453;28;20514;-64
2022/06/09 06:06:34;;;;;;;9.00;6.30;;;17.00;99.90;;;;;;5053077;28;20643;-73
2022/06/09 06:09:01;;;;;;;7.00;6.33;;;16.90;99.90;;;;;;5044376;28;20576;-71
2022/06/09 06:11:27;;;;;;;9.43;7.87;;;17.00;99.90;;;;;;5055498;28;20178;-73
2022/06/09 06:13:54;;;;;;;7.67;6.67;;;17.10;99.90;;;;;;5039489;28;20418;-72
2022/06/09 06:16:22;;;;;;;8.30;6.90;;;17.00;95.50;;;;;;5035782;28;20492;-74
2022/06/09 06:18:48;;;;;;;8.33;7.40;;;17.00;95.10;;;;;;5037498;28;20437;-65
2022/06/09 06:21:14;;;;;;;7.60;6.90;;;17.00;86.70;;;;;;5038863;28;20504;-64
2022/06/09 06:23:40;;;;;;;7.93;7.23;;;17.00;86.00;;;;;;5035407;28;20418;-73
2022/06/09 06:26:06;;;;;;;7.90;7.20;;;17.00;86.00;;;;;;5041783;28;20460;-64
2022/06/09 06:28:32;;;;;;;8.80;7.10;;;17.10;72.50;;;;;;5034466;28;20193;-73
2022/06/09 06:30:57;;;;;;;7.80;6.90;;;17.10;58.40;;;;;;5035188;28;20406;-65
2022/06/09 06:33:23;;;;;;;6.47;5.87;;;17.20;62.20;;;;;;5038047;28;20196;-64
2022/06/09 06:35:49;;;;;;;11.23;7.13;;;17.30;59.80;;;;;;5034937;28;20217;-71
2022/06/09 06:38:15;;;;;;;8.33;6.00;;;17.40;39.80;;;;;;5041188;28;20430;-64
2022/06/09 06:40:41;;;;;;;9.00;6.37;;;17.40;19.60;;;;;;5035350;28;20258;-72
2022/06/09 06:43:07;;;;;;;7.00;6.30;;;17.30;1.00;;;;;;5034711;28;20279;-65
2022/06/09 06:45:32;;;;;;;5.63;4.60;;;17.30;1.00;;;;;;5049966;28;20960;-65
2022/06/09 06:47:58;;;;;;;5.90;5.40;;;17.30;1.00;;;;;;5049629;28;20195;-73
2022/06/09 06:50:28;;;;;;;6.80;4.70;;;17.30;1.00;;;;;;5034330;28;20233;-73
2022/06/09 06:52:53;;;;;;;5.70;5.10;;;17.40;1.00;;;;;;5035963;28;20179;-73
2022/06/09 06:55:21;;;;;;;5.50;5.00;;;17.30;1.00;;;;;;5045572;28;20414;-65
2022/06/09 06:57:47;;;;;;;5.47;4.97;;;17.30;1.00;;;;;;5031641;28;20175;-64
2022/06/09 07:00:17;;;;;;;6.13;5.13;;;17.20;1.00;;;;;;5053166;28;20440;-64
2022/06/09 07:02:43;;;;;;;6.13;5.53;;;17.20;1.00;;;;;;5049861;28;20791;-65
2022/06/09 07:05:09;;;;;;;12.60;5.90;;;17.20;1.00;;;;;;5043926;28;20519;-73
2022/06/09 07:07:36;;;;;;;5.00;4.60;;;17.20;1.00;;;;;;5036091;28;20184;-65
2022/06/09 07:10:03;;;;;;;6.60;6.00;;;17.30;1.00;;;;;;5035112;28;20449;-64
2022/06/09 07:12:29;;;;;;;7.77;7.00;;;17.40;1.00;;;;;;5036679;28;20492;-71
2022/06/09 07:14:55;;;;;;;7.57;5.10;;;17.60;1.00;;;;;;5053982;28;20405;-69
2022/06/09 07:17:20;;;;;;;6.00;5.40;;;17.90;1.00;;;;;;5052876;28;20429;-73
2022/06/09 07:19:46;;;;;;;4.70;4.30;;;18.00;1.00;;;;;;5034283;28;20271;-64
2022/06/09 07:22:12;;;;;;;5.30;4.80;;;18.10;1.00;;;;;;5034121;28;20206;-65
2022/06/09 07:24:38;;;;;;;4.93;4.50;;;18.00;1.00;;;;;;5037498;28;20687;-65
2022/06/09 07:27:04;;;;;;;6.63;5.20;;;18.00;1.00;;;;;;5031371;28;20861;-74
2022/06/09 07:29:31;;;;;;;7.30;4.97;;;17.90;1.00;;;;;;5033750;28;20699;-64
2022/06/09 07:31:57;;;;;;;5.33;4.83;;;17.90;1.00;;;;;;5033885;28;20732;-64
2022/06/09 07:34:23;;;;;;;5.47;4.87;;;17.80;1.00;;;;;;5034216;28;20520;-72
2022/06/09 07:36:49;;;;;;;5.40;4.90;;;17.70;1.00;;;;;;5032700;28;20266;-67
2022/06/09 07:39:15;;;;;;;6.20;5.70;;;17.70;1.00;;;;;;5033960;28;20656;-73
2022/06/09 07:41:41;;;;;;;6.20;5.70;;;17.70;1.00;;;;;;5033094;28;20454;-65
2022/06/09 07:44:08;;;;;;;5.40;5.00;;;17.70;1.00;;;;;;5033848;28;20172;-65
2022/06/09 07:46:34;;;;;;;5.53;5.03;;;17.80;1.00;;;;;;5032835;28;20160;-65
2022/06/09 07:49:00;;;;;;;7.63;4.60;;;17.90;1.00;;;;;;5033841;28;20417;-65
2022/06/09 07:51:28;;;;;;;4.97;4.47;;;17.90;1.00;;;;;;5032988;28;20414;-65
2022/06/09 07:53:54;;;;;;;9.00;5.57;;;17.80;1.00;;;;;;5033551;28;20494;-65
2022/06/09 07:56:20;;;;;;;4.47;4.10;;;17.70;1.00;;;;;;5033701;28;20437;-65
2022/06/09 07:58:46;;;;;;;10.80;4.80;;;17.70;1.00;;;;;;5032803;28;20917;-65
2022/06/09 08:01:13;;;;;;;5.27;4.77;;;17.80;1.00;;;;;;5040456;28;20414;-73
2022/06/09 08:03:40;;;;;;;5.03;4.63;;;18.00;1.00;;;;;;5053510;28;20185;-65
2022/06/09 08:06:08;;;;;;;7.00;5.63;;;18.10;1.00;;;;;;5047498;28;20438;-72
2022/06/09 08:08:34;;;;;;;6.87;6.27;;;18.10;1.00;;;;;;5033932;28;20438;-64
2022/06/09 08:11:00;;;;;;;6.20;5.07;;;18.10;1.00;;;;;;5049188;28;20418;-73
2022/06/09 08:13:26;;;;;;;5.67;5.17;;;18.10;1.00;;;;;;5034366;28;20406;-65
2022/06/09 08:15:53;;;;;;;5.23;4.73;;;18.10;1.00;;;;;;5036676;28;20406;-65
2022/06/09 08:18:18;;;;;;;5.00;4.60;;;18.10;1.00;;;;;;5044456;28;20535;-64
2022/06/09 08:20:44;;;;;;;5.60;4.93;;;18.10;1.00;;;;;;5053439;28;20531;-73
2022/06/09 08:23:21;;;;;;;8.73;4.53;;;18.20;1.00;;;;;;5043629;28;20195;-73
2022/06/09 08:25:47;;;;;;;4.50;4.20;;;18.30;1.00;;;;;;5033338;28;20433;-74
2022/06/09 08:28:18;;;;;;;5.77;5.27;;;18.30;1.00;;;;;;5042600;28;20542;-67
2022/06/09 08:30:46;;;;;;;5.03;4.53;;;18.30;1.00;;;;;;5053237;28;20404;-65
2022/06/09 08:33:12;;;;;;;4.77;4.40;;;18.30;1.00;;;;;;5042959;28;20425;-73
2022/06/09 08:35:38;;;;;;;4.77;4.23;;;18.20;1.00;;;;;;5033273;28;20398;-73
2022/06/09 08:38:05;;;;;;;7.37;5.43;;;18.30;1.00;;;;;;5039655;28;20449;-74
2022/06/09 08:40:44;;;;;;;4.50;4.10;;;18.30;1.00;;;;;;5053283;28;20406;-65
2022/06/09 08:43:25;;;;;;;4.27;3.97;;;18.20;1.00;;;;;;5044341;28;20460;-65
2022/06/09 08:45:54;;;;;;;5.63;5.13;;;18.20;1.00;;;;;;5032026;28;20446;-65
2022/06/09 08:48:22;;;;;;;5.60;4.77;;;18.10;1.00;;;;;;5039306;28;21021;-73
2022/06/09 08:51:03;;;;;;;4.33;4.03;;;18.00;1.00;;;;;;5047253;28;20437;-65
2022/06/09 08:53:40;;;;;;;3.27;2.97;;;17.90;1.00;;;;;;5036384;28;20922;-65
2022/06/09 08:56:28;;;;;;;4.70;3.07;;;17.70;1.00;;;;;;5033090;28;21013;-66
2022/06/09 08:58:58;;;;;;;3.40;3.10;;;17.50;1.00;;;;;;5032907;28;20476;-65
2022/06/09 09:01:38;;;;;;;3.90;3.50;;;17.30;1.00;;;;;;5031732;28;20445;-73
2022/06/09 09:04:30;;;;;;;3.50;3.20;;;17.20;1.00;;;;;;5051114;28;20743;-73
2022/06/09 09:07:10;;;;;;;4.63;3.77;;;16.90;1.00;;;;;;5038041;28;20483;-73
2022/06/09 09:09:37;;;;;;;3.97;3.67;;;16.80;1.00;;;;;;5036759;28;20425;-73
2022/06/09 09:12:34;;;;;;;4.40;4.00;;;16.80;1.00;;;;;;5039589;28;20409;-64
2022/06/09 09:15:13;;;;;;;5.30;4.90;;;16.80;1.00;;;;;;5056433;28;20393;-72
2022/06/09 09:17:52;;;;;;;4.87;4.40;;;16.80;1.00;;;;;;5047653;28;20456;-73
2022/06/09 09:20:35;;;;;;;4.53;4.13;;;16.70;1.00;;;;;;5035952;28;20494;-64
2022/06/09 09:23:08;;;;;;;3.17;2.87;;;16.70;1.00;;;;;;5041174;28;20457;-64
2022/06/09 09:26:12;;;;;;;2.40;2.30;;;16.70;1.00;;;;;;5036420;28;20398;-64
2022/06/09 09:29:09;;;;;;;4.40;2.30;;;16.70;1.00;;;;;;5049248;28;20835;-72
2022/06/09 09:32:13;;;;;;;2.80;2.60;;;16.70;1.00;;;;;;5055366;28;20902;-72
2022/06/09 09:34:44;;;;;;;2.40;2.30;;;16.80;1.00;;;;;;5034097;28;20505;-67
2022/06/09 09:37:25;;;;;;;3.17;2.97;;;16.80;1.00;;;;;;5031224;28;20802;-72
2022/06/09 09:40:04;;;;;;;5.73;2.90;;;16.90;1.00;;;;;;5035822;28;20483;-68
2022/06/09 09:42:36;;;;;;;3.13;2.90;;;17.00;1.00;;;;;;5038572;28;20810;-72
2022/06/09 09:45:11;;;;;;;2.70;2.50;;;17.10;1.00;;;;;;5054953;28;20756;-64
2022/06/09 09:47:50;;;;;;;2.53;2.33;;;17.30;1.00;;;;;;5052051;28;20484;-67
2022/06/09 09:50:36;;;;;;;3.10;2.73;;;17.60;1.00;;;;;;5036255;28;20763;-66
2022/06/09 09:53:24;;;;;;;3.23;2.30;;;18.10;1.00;;;;;;5044325;28;20417;-67
2022/06/09 09:55:51;;;;;;;2.47;2.30;;;18.50;1.00;;;;;;5037611;28;20414;-66
2022/06/09 09:58:46;;;;;;;2.07;1.97;;;19.00;1.00;;;;;;5040163;28;20433;-70
2022/06/09 10:01:18;;;;;;;2.83;1.97;;;19.30;1.00;;;;;;5055638;28;20430;-75
2022/06/09 10:09:49;;;;;;;3.03;2.10;;;19.30;1.00;;;;;;5048591;28;20452;-66
2022/06/09 10:12:20;;;;;;;2.07;1.87;;;19.50;1.00;;;;;;5054850;28;20397;-71
2022/06/09 10:14:48;;;;;;;5.30;1.90;;;19.80;1.00;;;;;;5039654;28;20797;-66
2022/06/09 10:17:28;;;;;;;4.00;1.80;;;19.80;1.00;;;;;;5053794;28;20413;-66
2022/06/09 10:20:14;;;;;;;2.33;2.20;;;19.60;99.90;;;;;;5054872;28;20425;-65
2022/06/09 10:22:42;;;;;;;2.13;2.03;;;19.40;99.90;;;;;;5050896;28;20452;-65
2022/06/09 10:25:23;;;;;;;2.23;2.13;;;19.20;99.90;;;;;;5055195;28;20793;-75
2022/06/09 10:28:11;;;;;;;2.80;2.60;;;19.30;99.90;;;;;;5037442;28;20414;-75
2022/06/09 10:30:48;;;;;;;2.37;2.17;;;19.70;99.90;;;;;;5035050;28;20418;-76
2022/06/09 10:33:33;;;;;;;2.73;2.53;;;20.50;99.90;;;;;;5036134;28;20429;-67
2022/06/09 10:36:30;;;;;;;3.77;3.47;;;21.10;99.90;;;;;;5034385;28;20440;-73
2022/06/09 10:39:08;;;;;;;3.37;3.17;;;21.60;99.90;;;;;;5034516;28;20505;-74
2022/06/09 10:41:40;;;;;;;3.13;2.93;;;21.60;99.90;;;;;;5037168;28;20453;-65
2022/06/09 10:44:17;;;;;;;2.73;2.63;;;21.20;99.90;;;;;;5040972;28;20483;-72
2022/06/09 10:56:13;;;;;;;4.90;4.50;;;20.80;99.90;;;;;;5046121;28;20942;-64
2022/06/09 10:58:53;;;;;;;4.00;3.70;;;21.80;99.90;;;;;;5033540;28;20498;-74
2022/06/09 11:01:25;;;;;;;4.23;3.93;;;22.10;99.90;;;;;;5034495;28;20450;-75
2022/06/09 11:03:51;;;;;;;3.13;2.93;;;21.70;99.90;;;;;;5046353;28;20449;-64
2022/06/09 11:06:28;;;;;;;3.77;3.50;;;21.30;99.90;;;;;;5053551;28;20901;-66
2022/06/09 11:09:12;;;;;;;3.63;3.43;;;21.00;99.90;;;;;;5034642;28;20452;-65
2022/06/09 11:11:55;;;;;;;3.83;3.53;;;20.30;99.90;;;;;;5034366;28;20918;-69
2022/06/09 11:14:46;;;;;;;3.90;3.60;;;20.10;99.90;;;;;;5053177;28;20414;-66
2022/06/09 11:17:26;;;;;;;3.77;3.50;;;20.40;99.90;;;;;;5047140;28;20507;-73
2022/06/09 11:20:13;;;;;;;4.50;4.20;;;20.90;99.90;;;;;;5033797;28;20446;-73
2022/06/09 11:22:54;;;;;;;3.40;3.10;;;21.60;99.90;;;;;;5037679;28;20457;-71
2022/06/09 11:25:49;;;;;;;4.60;3.07;;;22.70;99.90;;;;;;5034223;28;20394;-76
2022/06/09 11:28:20;;;;;;;3.40;3.20;;;23.50;99.90;;;;;;5031628;28;20430;-68
2022/06/09 11:31:07;;;;;;;4.43;4.13;;;23.00;99.90;;;;;;5033496;28;20516;-64
2022/06/09 11:34:14;;;;;;;3.97;3.67;;;22.10;99.90;;;;;;5050574;28;20832;-73
2022/06/09 11:36:55;;;;;;;2.70;2.57;;;21.30;99.90;;;;;;5046806;28;20505;-64
2022/06/09 11:39:33;;;;;;;2.50;2.40;;;21.20;99.90;;;;;;5032634;28;20449;-76
2022/06/09 11:42:04;;;;;;;2.17;1.87;;;22.30;99.90;;;;;;5038338;28;20970;-67
2022/06/09 11:44:42;;;;;;;1.87;1.43;;;23.60;99.90;;;;;;5033294;28;20414;-68
2022/06/09 11:47:16;;;;;;;2.23;2.03;;;23.70;99.90;;;;;;5040176;28;20507;-75
2022/06/09 11:49:47;;;;;;;1.63;1.53;;;23.20;99.90;;;;;;5053376;28;20421;-68
2022/06/09 11:52:22;;;;;;;1.93;1.80;;;22.40;99.90;;;;;;5045900;28;20410;-74
2022/06/09 11:54:48;;;;;;;1.20;1.10;;;21.70;99.90;;;;;;5033958;28;20548;-73
2022/06/09 11:57:42;;;;;;;1.40;1.30;;;21.40;99.90;;;;;;5039632;28;20547;-67
2022/06/09 12:00:22;;;;;;;1.30;1.17;;;22.40;99.90;;;;;;5042315;28;20199;-66
2022/06/09 12:02:54;;;;;;;1.30;1.20;;;23.60;99.90;;;;;;5038833;28;20473;-75
2022/06/09 12:05:22;;;;;;;1.00;0.90;;;23.70;99.90;;;;;;5035455;28;20393;-70
2022/06/09 12:08:15;;;;;;;1.77;0.80;;;24.20;99.90;;;;;;5032713;28;20407;-67
2022/06/09 12:11:00;;;;;;;1.10;0.93;;;25.20;99.90;;;;;;5035773;28;20461;-67
2022/06/09 12:13:34;;;;;;;2.60;1.30;;;25.50;99.90;;;;;;5051551;28;20425;-67
2022/06/09 12:16:05;;;;;;;1.20;1.10;;;24.90;99.90;;;;;;5039193;28;20999;-75
2022/06/09 12:18:36;;;;;;;1.47;1.10;;;24.70;99.90;;;;;;5032536;28;20517;-73
2022/06/09 12:21:15;;;;;;;1.20;1.10;;;25.40;99.90;;;;;;5033333;28;20441;-76
2022/06/09 12:23:43;;;;;;;1.27;1.10;;;24.40;99.90;;;;;;5033412;28;20398;-68
2022/06/09 12:26:09;;;;;;;3.13;1.20;;;23.60;99.90;;;;;;5045617;28;20408;-66
2022/06/09 12:28:50;;;;;;;1.70;1.30;;;23.10;99.90;;;;;;5035540;28;20438;-67
2022/06/09 12:31:22;;;;;;;1.30;1.20;;;22.60;99.90;;;;;;5045816;28;20198;-67
2022/06/09 12:33:55;;;;;;;2.20;1.53;;;22.20;99.90;;;;;;5053155;28;20397;-67
2022/06/09 12:36:49;;;;;;;1.63;1.40;;;21.70;99.90;;;;;;5039789;28;20417;-65
2022/06/09 12:39:29;;;;;;;2.20;2.10;;;21.30;99.90;;;;;;5036469;28;20409;-67
2022/06/09 12:42:02;;;;;;;2.50;2.30;;;21.10;99.90;;;;;;5051829;28;20448;-66
2022/06/09 12:44:52;;;;;;;2.07;1.97;;;21.00;99.90;;;;;;5056824;28;20924;-65
2022/06/09 12:47:22;;;;;;;2.00;1.90;;;21.40;99.90;;;;;;5037758;28;20472;-66
2022/06/09 12:49:59;;;;;;;2.93;2.73;;;21.70;99.90;;;;;;5037159;28;20422;-65
2022/06/09 12:52:38;;;;;;;3.13;2.80;;;22.20;99.90;;;;;;5037468;28;20492;-65
2022/06/09 12:55:22;;;;;;;3.67;2.33;;;22.30;99.90;;;;;;5036604;28;20489;-76
2022/06/09 12:57:54;;;;;;;2.07;1.90;;;22.30;99.90;;;;;;5036124;28;20406;-73
2022/06/09 13:00:29;;;;;;;6.90;2.80;;;22.00;99.90;;;;;;5037682;28;20406;-75
2022/06/09 13:02:55;;;;;;;2.40;2.20;;;22.00;99.90;;;;;;5045503;28;20977;-73
2022/06/09 13:05:36;;;;;;;2.93;2.60;;;22.10;99.90;;;;;;5039201;28;20414;-74
2022/06/09 13:08:25;;;;;;;2.80;2.60;;;21.90;99.90;;;;;;5036753;28;20495;-72
2022/06/09 13:11:14;;;;;;;1.97;1.83;;;22.00;99.90;;;;;;5046168;28;20461;-66
2022/06/09 13:13:42;;;;;;;3.83;3.53;;;21.90;99.90;;;;;;5043596;28;21009;-65
2022/06/09 13:16:20;;;;;;;3.00;2.70;;;21.60;99.90;;;;;;5048758;28;20405;-65
2022/06/09 13:18:53;;;;;;;3.13;2.83;;;21.90;99.90;;;;;;5054998;28;20463;-68
2022/06/09 13:21:24;;;;;;;3.97;3.20;;;22.90;99.90;;;;;;5055033;28;20431;-76
2022/06/09 13:23:56;;;;;;;3.60;3.30;;;23.00;99.90;;;;;;5055688;28;20432;-70
2022/06/09 13:26:26;;;;;;;3.00;2.80;;;23.00;99.90;;;;;;5042804;28;20438;-70
2022/06/09 13:28:57;;;;;;;3.60;3.30;;;22.50;99.90;;;;;;5049105;28;20985;-65
2022/06/09 13:31:23;;;;;;;3.03;2.80;;;21.20;99.90;;;;;;5036373;28;20906;-70